Time;durP1;ratioP1;P1;durP2;ratioP2;P2;SDS_P1;SDS_P2;PMS_P1;PMS_P2;Temp;Humidity;BMP_temperature;BMP_pressure;BME280_temperature;BME280_humidity;BME280_pressure;Samples;Min_cycle;Max_cycle;Signal;HPM_P1;HPM_P2
2021/08/17 00:01:33;;;;;;;8.85;2.55;;;;;;;16.01;63.30;99638.25;6038970;23;20101;-82
2021/08/17 00:04:00;;;;;;;11.00;3.13;;;;;;;16.02;63.14;99647.06;6040057;23;20027;-82
2021/08/17 00:06:27;;;;;;;10.23;2.60;;;;;;;16.02;63.16;99639.09;6039231;23;20399;-82
2021/08/17 00:08:54;;;;;;;8.65;2.47;;;;;;;16.03;63.22;99638.13;6039357;23;20057;-81
2021/08/17 00:11:22;;;;;;;8.48;2.55;;;;;;;16.01;63.42;99640.91;6039048;23;20106;-78
2021/08/17 00:13:48;;;;;;;10.73;2.88;;;;;;;16.02;63.32;99631.13;6040334;23;20023;-78
2021/08/17 00:16:15;;;;;;;10.68;2.60;;;;;;;16.02;63.20;99645.28;6038917;23;20069;-81
2021/08/17 00:18:43;;;;;;;11.35;2.70;;;;;;;16.03;63.44;99646.09;6038917;23;20070;-81
2021/08/17 00:21:12;;;;;;;12.43;2.58;;;;;;;16.02;63.73;99639.97;6038792;23;20098;-78
2021/08/17 00:23:39;;;;;;;8.38;2.25;;;;;;;16.04;63.23;99641.63;6038745;23;20499;-78
2021/08/17 00:26:06;;;;;;;15.52;3.05;;;;;;;16.04;63.26;99633.66;6039054;23;20471;-78
2021/08/17 00:28:32;;;;;;;9.15;2.58;;;;;;;16.04;63.29;99637.19;6038630;23;20130;-82
2021/08/17 00:31:01;;;;;;;12.82;2.63;;;;;;;16.04;63.75;99637.19;6038748;23;20037;-82
2021/08/17 00:33:30;;;;;;;14.35;2.97;;;;;;;16.06;63.34;99629.06;6039036;23;20023;-82
2021/08/17 00:35:57;;;;;;;8.25;2.90;;;;;;;16.05;63.21;99638.00;6038770;23;20478;-82
2021/08/17 00:38:25;;;;;;;10.15;2.58;;;;;;;16.05;63.56;99627.38;6038926;23;20399;-82
2021/08/17 00:40:53;;;;;;;13.23;3.15;;;;;;;16.04;63.33;99636.31;6040040;23;20054;-81
2021/08/17 00:43:21;;;;;;;13.75;2.55;;;;;;;16.05;63.30;99638.00;6038718;23;20106;-81
2021/08/17 00:45:56;;;;;;;14.65;2.58;;;;;;;16.01;64.26;99635.59;6038903;23;20099;-81
2021/08/17 00:48:22;;;;;;;9.35;2.25;;;;;;;16.05;63.24;99638.00;6039025;23;20367;-81
2021/08/17 00:50:49;;;;;;;12.07;2.78;;;;;;;16.04;63.24;99633.66;6038689;23;20094;-81
2021/08/17 00:53:21;;;;;;;10.57;3.03;;;;;;;16.02;63.74;99641.75;6038704;23;20027;-82
2021/08/17 00:55:50;;;;;;;9.70;2.47;;;;;;;16.02;63.43;99642.63;6038847;23;20051;-81
2021/08/17 00:58:18;;;;;;;12.48;2.65;;;;;;;16.01;63.44;99640.91;6038587;23;20111;-81
2021/08/17 01:00:47;;;;;;;13.68;2.45;;;;;;;16.02;63.41;99647.91;6038918;23;20027;-81
2021/08/17 01:03:17;;;;;;;9.68;2.67;;;;;;;16.01;63.32;99640.91;6038570;23;20027;-81
2021/08/17 01:05:46;;;;;;;12.80;3.00;;;;;;;16.00;63.60;99639.22;6038828;23;20339;-81
2021/08/17 01:08:12;;;;;;;8.38;2.28;;;;;;;16.00;63.21;99633.91;6038590;23;20070;-81
2021/08/17 01:10:41;;;;;;;7.70;2.42;;;;;;;16.01;63.15;99630.28;6059675;23;20023;-81
2021/08/17 01:13:10;;;;;;;8.95;2.40;;;;;;;15.99;63.53;99637.53;6043943;23;20098;-81
2021/08/17 01:15:37;;;;;;;11.10;2.55;;;;;;;15.99;62.92;99634.88;6043349;23;20065;-81
2021/08/17 01:18:06;;;;;;;6.40;2.25;;;;;;;15.97;63.01;99628.88;6043505;23;20065;-78
2021/08/17 01:20:34;;;;;;;8.32;2.20;;;;;;;15.98;63.03;99642.97;6045222;23;20053;-77
2021/08/17 01:23:01;;;;;;;10.93;2.58;;;;;;;15.97;63.03;99628.03;6045269;23;20054;-82
2021/08/17 01:25:33;;;;;;;7.25;2.30;;;;;;;15.95;63.69;99637.91;6045390;23;20050;-77
2021/08/17 01:28:00;;;;;;;10.93;2.50;;;;;;;15.97;62.97;99638.66;6045422;23;20022;-82
2021/08/17 01:30:26;;;;;;;12.80;2.63;;;;;;;15.96;62.90;99642.28;6045372;23;20105;-78
2021/08/17 01:32:58;;;;;;;10.30;2.50;;;;;;;15.92;63.38;99633.66;6045604;23;20126;-78
2021/08/17 01:35:25;;;;;;;9.65;2.47;;;;;;;15.92;62.81;99636.31;6044942;23;20099;-78
2021/08/17 01:37:54;;;;;;;10.23;2.47;;;;;;;15.90;63.23;99643.59;6045299;23;20061;-78
2021/08/17 01:40:21;;;;;;;11.95;2.35;;;;;;;15.88;62.95;99654.31;6045582;23;20430;-78
2021/08/17 01:42:51;;;;;;;12.18;2.95;;;;;;;15.87;62.89;99647.34;6045881;23;20029;-78
2021/08/17 01:45:21;;;;;;;13.75;2.70;;;;;;;15.84;63.16;99650.22;6044922;23;20058;-78
2021/08/17 01:47:49;;;;;;;11.98;2.72;;;;;;;15.83;62.81;99653.84;6044852;23;20105;-78
2021/08/17 01:50:18;;;;;;;8.73;2.60;;;;;;;15.82;62.86;99661.94;6045972;23;20027;-78
2021/08/17 01:52:46;;;;;;;10.85;2.70;;;;;;;15.78;62.85;99658.69;6046309;23;20430;-78
2021/08/17 01:55:13;;;;;;;11.05;2.53;;;;;;;15.77;62.66;99664.94;6045098;23;20407;-78
2021/08/17 01:57:44;;;;;;;10.50;2.33;;;;;;;15.71;62.97;99663.66;6045025;23;20033;-78
2021/08/17 02:00:12;;;;;;;8.23;2.25;;;;;;;15.70;62.56;99664.59;6044972;23;20105;-80
2021/08/17 02:02:40;;;;;;;11.38;2.45;;;;;;;15.67;62.60;99664.88;6045029;23;20079;-80
2021/08/17 02:05:08;;;;;;;13.77;2.75;;;;;;;15.63;62.52;99672.22;6044938;23;20019;-80
2021/08/17 02:07:38;;;;;;;18.52;2.70;;;;;;;15.60;62.96;99667.16;6045364;23;20030;-80
2021/08/17 02:10:08;;;;;;;8.63;2.05;;;;;;;15.58;62.94;99668.22;6039870;23;20114;-80
2021/08/17 02:12:35;;;;;;;9.68;2.50;;;;;;;15.56;62.67;99676.34;6039629;23;20110;-79
2021/08/17 02:15:03;;;;;;;10.88;2.67;;;;;;;15.54;62.79;99669.44;6038792;23;20098;-79
2021/08/17 02:17:29;;;;;;;13.68;2.83;;;;;;;15.52;62.90;99669.59;6041472;23;20023;-80
2021/08/17 02:19:56;;;;;;;10.18;2.28;;;;;;;15.52;62.85;99671.38;6039874;23;20054;-80
2021/08/17 02:22:24;;;;;;;13.68;2.83;;;;;;;15.50;63.02;99679.47;6039828;23;20058;-80
2021/08/17 02:24:51;;;;;;;11.18;2.72;;;;;;;15.49;62.90;99675.97;6039917;23;20515;-80
2021/08/17 02:27:17;;;;;;;11.70;2.42;;;;;;;15.47;62.85;99680.53;6040442;23;20443;-78
2021/08/17 02:29:54;;;;;;;10.82;2.88;;;;;;;15.45;63.50;99684.28;6041466;23;20070;-78
2021/08/17 02:32:21;;;;;;;12.45;2.40;;;;;;;15.48;62.88;99673.44;6039642;23;20443;-78
2021/08/17 02:34:48;;;;;;;9.65;2.10;;;;;;;15.47;62.92;99672.59;6040090;23;20471;-78
2021/08/17 02:37:14;;;;;;;10.80;2.55;;;;;;;15.48;62.91;99676.91;6039690;23;20037;-78
2021/08/17 02:39:42;;;;;;;7.82;2.00;;;;;;;15.47;62.79;99675.25;6040076;23;20397;-77
2021/08/17 02:42:09;;;;;;;12.13;2.47;;;;;;;15.46;62.38;99680.66;6041404;23;20094;-78
2021/08/17 02:44:38;;;;;;;8.82;2.47;;;;;;;15.45;62.70;99685.16;6041338;23;20459;-78
2021/08/17 02:47:04;;;;;;;11.38;2.10;;;;;;;15.43;62.41;99686.19;6039290;23;20031;-78
2021/08/17 02:49:33;;;;;;;9.77;2.50;;;;;;;15.40;62.29;99687.28;6040954;23;20034;-77
2021/08/17 02:52:04;;;;;;;10.13;2.75;;;;;;;15.35;62.60;99695.63;6040039;23;20510;-78
2021/08/17 02:54:36;;;;;;;11.60;2.83;;;;;;;15.33;62.74;99691.41;6039366;23;20071;-78
2021/08/17 02:57:04;;;;;;;12.30;2.42;;;;;;;15.33;62.60;99694.88;6041078;23;20110;-78
2021/08/17 02:59:31;;;;;;;6.38;1.77;;;;;;;15.32;62.40;99695.84;6039615;23;20101;-81
2021/08/17 03:01:58;;;;;;;13.55;2.58;;;;;;;15.33;62.61;99702.00;6040561;23;20019;-81
2021/08/17 03:04:30;;;;;;;11.02;3.00;;;;;;;15.30;62.96;99696.94;6039605;23;20035;-81
2021/08/17 03:06:57;;;;;;;9.23;2.63;;;;;;;15.32;62.63;99702.97;6040883;23;20031;-81
2021/08/17 03:09:24;;;;;;;11.93;2.38;;;;;;;15.32;62.64;99697.66;6041761;23;20059;-82
2021/08/17 03:11:52;;;;;;;11.90;2.78;;;;;;;15.32;62.81;99700.31;6069380;23;20091;-78
2021/08/17 03:14:19;;;;;;;9.50;2.45;;;;;;;15.34;62.57;99695.75;6044297;23;20045;-78
2021/08/17 03:16:47;;;;;;;9.52;2.42;;;;;;;15.34;62.52;99701.03;6044321;23;20027;-83
2021/08/17 03:19:14;;;;;;;12.60;2.28;;;;;;;15.34;62.32;99688.63;6044391;23;20054;-83
2021/08/17 03:21:40;;;;;;;9.63;2.13;;;;;;;15.35;62.17;99692.97;6044174;23;20097;-78
2021/08/17 03:24:12;;;;;;;9.50;2.33;;;;;;;15.32;62.47;99693.22;6044343;23;20061;-81
2021/08/17 03:26:39;;;;;;;7.38;2.33;;;;;;;15.33;62.02;99699.38;6044053;23;20029;-81
2021/08/17 03:29:06;;;;;;;9.00;2.10;;;;;;;15.31;61.88;99694.19;6069721;23;20499;-82
2021/08/17 03:31:33;;;;;;;9.52;2.35;;;;;;;15.29;61.87;99693.44;6044704;23;20097;-81
2021/08/17 03:34:00;;;;;;;7.78;1.98;;;;;;;15.27;61.91;99689.22;6069737;23;20029;-81
2021/08/17 03:36:27;;;;;;;12.75;2.45;;;;;;;15.26;61.89;99690.19;6044493;23;20050;-78
2021/08/17 03:39:00;;;;;;;10.95;2.10;;;;;;;15.21;62.36;99694.03;6044500;23;20117;-77
2021/08/17 03:41:27;;;;;;;11.77;2.25;;;;;;;15.22;62.17;99687.75;6070001;23;20094;-77
2021/08/17 03:43:55;;;;;;;8.05;2.22;;;;;;;15.22;62.11;99684.28;6043636;23;20098;-82
2021/08/17 03:46:22;;;;;;;12.60;2.40;;;;;;;15.20;61.89;99695.00;6044149;23;20406;-78
2021/08/17 03:48:49;;;;;;;8.80;2.28;;;;;;;15.19;62.08;99689.81;6045105;23;20510;-78
2021/08/17 03:51:16;;;;;;;11.55;2.20;;;;;;;15.18;61.92;99688.13;6069452;23;20061;-78
2021/08/17 03:53:44;;;;;;;10.13;2.00;;;;;;;15.17;62.21;99700.53;6043843;23;20046;-80
2021/08/17 03:56:10;;;;;;;13.77;2.17;;;;;;;15.16;62.15;99687.41;6043870;23;20098;-82
2021/08/17 03:58:40;;;;;;;14.10;2.22;;;;;;;15.15;62.44;99691.88;6044429;23;20407;-82
2021/08/17 04:01:07;;;;;;;11.13;2.28;;;;;;;15.17;62.09;99692.59;6043820;23;20101;-82
2021/08/17 04:03:34;;;;;;;8.07;1.80;;;;;;;15.17;62.15;99694.41;6043907;23;20030;-82
2021/08/17 04:06:02;;;;;;;9.10;2.38;;;;;;;15.16;62.30;99701.50;6043519;23;20023;-82
2021/08/17 04:08:29;;;;;;;8.32;2.10;;;;;;;15.16;62.27;99706.81;6044306;23;20121;-82
2021/08/17 04:10:56;;;;;;;10.50;2.10;;;;;;;15.17;62.24;99712.97;6041047;23;20107;-77
2021/08/17 04:13:23;;;;;;;9.27;2.17;;;;;;;15.17;62.23;99713.81;6043802;23;20062;-77
2021/08/17 04:15:51;;;;;;;8.88;2.15;;;;;;;15.18;62.42;99715.47;6043553;23;20099;-80
2021/08/17 04:18:18;;;;;;;10.38;2.55;;;;;;;15.20;62.25;99718.88;6043901;23;20101;-82
2021/08/17 04:20:45;;;;;;;10.38;2.42;;;;;;;15.21;62.08;99725.88;6068777;23;20106;-78
2021/08/17 04:23:13;;;;;;;11.02;2.35;;;;;;;15.21;61.94;99736.47;6044109;23;20097;-78
2021/08/17 04:25:41;;;;;;;10.20;2.33;;;;;;;15.21;61.94;99736.47;6044204;23;20483;-83
2021/08/17 04:28:29;;;;;;;12.40;2.17;;;;;;;15.14;62.23;99735.25;6043776;23;20101;-82
2021/08/17 04:31:16;;;;;;;10.38;2.47;;;;;;;15.13;62.22;99744.16;6044297;23;20094;-82
2021/08/17 04:33:43;;;;;;;13.98;2.80;;;;;;;15.16;61.85;99738.63;6043775;23;20355;-83
2021/08/17 04:36:09;;;;;;;10.77;2.40;;;;;;;15.15;61.90;99731.66;6043820;23;20121;-82
2021/08/17 04:38:37;;;;;;;13.23;2.40;;;;;;;15.14;62.13;99735.25;6043589;23;20087;-83
2021/08/17 04:41:05;;;;;;;10.73;2.15;;;;;;;15.17;62.14;99734.19;6043581;23;20062;-82
2021/08/17 04:43:32;;;;;;;10.25;1.77;;;;;;;15.18;62.27;99742.00;6043625;23;20062;-83
2021/08/17 04:45:59;;;;;;;9.88;2.25;;;;;;;15.20;62.33;99747.19;6043446;23;20542;-82
2021/08/17 04:48:26;;;;;;;11.38;1.98;;;;;;;15.22;62.09;99743.44;6043370;23;20082;-82
2021/08/17 04:50:53;;;;;;;9.35;2.22;;;;;;;15.24;62.09;99752.16;6043501;23;20097;-82
2021/08/17 04:53:20;;;;;;;9.82;1.95;;;;;;;15.27;62.06;99752.84;6043573;23;20065;-82
2021/08/17 04:55:46;;;;;;;9.80;2.45;;;;;;;15.29;62.17;99748.31;6042946;23;20054;-82
2021/08/17 04:58:14;;;;;;;10.00;2.25;;;;;;;15.30;62.00;99753.50;6043647;23;20395;-82
2021/08/17 05:00:47;;;;;;;10.23;2.20;;;;;;;15.32;62.16;99748.03;6043467;23;20023;-84
2021/08/17 05:03:15;;;;;;;11.55;2.33;;;;;;;15.35;61.83;99763.72;6043441;23;20027;-79
2021/08/17 05:06:07;;;;;;;13.63;1.88;;;;;;;15.32;62.26;99753.34;6043504;23;20094;-79
2021/08/17 05:08:34;;;;;;;6.40;1.80;;;;;;;15.37;61.69;99764.47;6068883;23;20470;-79
2021/08/17 05:11:21;;;;;;;12.75;2.67;;;;;;;15.34;62.02;99772.66;6044209;23;20470;-79
2021/08/17 05:13:47;;;;;;;9.65;2.17;;;;;;;15.37;61.61;99767.13;6069130;23;20090;-79
2021/08/17 05:16:14;;;;;;;8.65;2.30;;;;;;;15.37;61.65;99767.13;6043722;23;20455;-80
2021/08/17 05:18:42;;;;;;;9.70;2.50;;;;;;;15.37;61.68;99772.44;6043590;23;20110;-79
2021/08/17 05:21:09;;;;;;;10.10;2.55;;;;;;;15.38;61.75;99763.50;6043310;23;20101;-80
2021/08/17 05:23:35;;;;;;;9.55;2.72;;;;;;;15.40;61.90;99761.56;6043756;23;20371;-80
2021/08/17 05:26:04;;;;;;;10.75;2.50;;;;;;;15.41;61.90;99767.72;6044220;23;20073;-79
2021/08/17 05:28:31;;;;;;;10.63;2.83;;;;;;;15.44;61.96;99773.63;6068884;23;20324;-81
2021/08/17 05:30:57;;;;;;;9.60;2.53;;;;;;;15.48;62.00;99763.63;6043688;23;20491;-81
2021/08/17 05:33:26;;;;;;;12.07;2.65;;;;;;;15.52;62.21;99766.88;6043716;23;20419;-81
2021/08/17 05:35:53;;;;;;;15.82;2.80;;;;;;;15.57;62.03;99772.66;6042913;23;20061;-81
2021/08/17 05:38:20;;;;;;;13.00;2.33;;;;;;;15.62;61.94;99781.97;6043397;23;20394;-81
2021/08/17 05:41:34;;;;;;;8.68;2.47;;;;;;;15.63;62.32;99777.50;6044898;23;20495;-81
2021/08/17 05:44:01;;;;;;;7.00;2.30;;;;;;;15.74;61.92;99780.16;6043219;23;20403;-81
2021/08/17 05:46:28;;;;;;;13.68;2.85;;;;;;;15.80;61.84;99773.53;6043542;23;20106;-77
2021/08/17 05:48:55;;;;;;;8.13;2.30;;;;;;;15.86;61.65;99773.03;6068600;23;20031;-76
2021/08/17 05:51:22;;;;;;;11.85;3.28;;;;;;;15.90;61.54;99776.31;6043912;23;20101;-77
2021/08/17 05:53:49;;;;;;;8.80;2.55;;;;;;;15.96;61.57;99770.53;6042992;23;20098;-77
2021/08/17 05:56:15;;;;;;;11.48;3.15;;;;;;;15.99;61.52;99775.59;6043217;23;20097;-77
2021/08/17 05:58:42;;;;;;;14.43;2.90;;;;;;;16.03;61.35;99768.22;6044171;23;20527;-81
2021/08/17 06:01:09;;;;;;;15.48;2.72;;;;;;;16.06;61.25;99769.78;6043508;23;20065;-81
2021/08/17 06:03:51;;;;;;;10.07;2.58;;;;;;;16.09;61.31;99778.38;6068432;23;20023;-81
2021/08/17 06:06:18;;;;;;;11.48;2.60;;;;;;;16.16;61.64;99773.41;6043804;23;20058;-81
2021/08/17 06:08:45;;;;;;;11.10;2.65;;;;;;;16.21;61.72;99780.97;6045342;23;20066;-81
2021/08/17 06:11:13;;;;;;;8.63;2.20;;;;;;;16.28;61.78;99779.53;6040212;23;20471;-81
2021/08/17 06:13:40;;;;;;;9.55;2.45;;;;;;;16.35;61.52;99783.38;6040224;23;20106;-77
2021/08/17 06:16:07;;;;;;;6.82;2.53;;;;;;;16.41;61.15;99782.06;6039736;23;20091;-77
2021/08/17 06:18:34;;;;;;;11.93;3.25;;;;;;;16.45;61.10;99786.13;6039921;23;20063;-77
2021/08/17 06:21:02;;;;;;;14.93;3.03;;;;;;;16.48;61.01;99779.75;6040407;23;20027;-77
2021/08/17 06:23:28;;;;;;;10.15;2.60;;;;;;;16.51;60.95;99779.47;6039850;23;20080;-77
2021/08/17 06:25:55;;;;;;;8.07;2.17;;;;;;;16.51;60.79;99790.09;6040314;23;20040;-77
2021/08/17 06:28:22;;;;;;;8.10;2.53;;;;;;;16.53;60.69;99777.53;6040377;23;20098;-77
2021/08/17 06:30:51;;;;;;;10.27;2.50;;;;;;;16.53;60.85;99781.03;6040544;23;20107;-77
2021/08/17 06:33:17;;;;;;;7.30;2.63;;;;;;;16.57;60.82;99778.13;6039946;23;20031;-77
2021/08/17 06:35:44;;;;;;;7.75;2.50;;;;;;;16.58;60.99;99785.13;6039598;23;20098;-77
2021/08/17 06:38:11;;;;;;;11.95;2.88;;;;;;;16.60;61.02;99792.00;6040070;23;20098;-77
2021/08/17 06:40:38;;;;;;;7.97;2.60;;;;;;;16.65;61.19;99794.28;6040531;23;20073;-79
2021/08/17 06:43:05;;;;;;;9.38;2.63;;;;;;;16.70;61.34;99783.28;6040146;23;20481;-79
2021/08/17 06:45:32;;;;;;;11.52;3.58;;;;;;;16.75;61.31;99781.91;6039341;23;20102;-79
2021/08/17 06:48:08;;;;;;;9.30;3.00;;;;;;;16.82;61.87;99776.09;6039832;23;20027;-79
2021/08/17 06:50:41;;;;;;;10.23;3.10;;;;;;;16.93;61.24;99778.69;6039725;23;20031;-79
2021/08/17 06:53:08;;;;;;;8.27;3.03;;;;;;;16.99;60.88;99780.84;6039722;23;20074;-79
2021/08/17 06:55:36;;;;;;;9.40;2.80;;;;;;;17.05;60.71;99787.50;6039764;23;20131;-79
2021/08/17 06:58:04;;;;;;;10.82;3.13;;;;;;;17.11;60.59;99784.31;6039907;23;20455;-79
2021/08/17 07:00:31;;;;;;;11.75;3.25;;;;;;;17.16;60.59;99791.94;6039674;23;20031;-80
2021/08/17 07:02:58;;;;;;;7.13;2.67;;;;;;;17.21;60.77;99783.53;6039566;23;20111;-79
2021/08/17 07:05:37;;;;;;;8.38;3.00;;;;;;;17.23;60.47;99793.06;6039224;23;20416;-79
2021/08/17 07:08:05;;;;;;;8.45;3.30;;;;;;;17.28;60.50;99798.88;6039654;23;20099;-79
2021/08/17 07:10:34;;;;;;;9.57;3.05;;;;;;;17.31;60.48;99797.75;6039835;23;20031;-77
2021/08/17 07:13:18;;;;;;;9.73;3.20;;;;;;;17.37;60.52;99799.88;6040110;23;20052;-77
2021/08/17 07:15:45;;;;;;;8.73;3.28;;;;;;;17.42;60.49;99802.16;6039090;23;20024;-78
2021/08/17 07:18:11;;;;;;;9.23;3.40;;;;;;;17.46;60.53;99803.59;6039424;23;20031;-78
2021/08/17 07:20:41;;;;;;;6.63;3.33;;;;;;;17.48;60.99;99796.31;6039378;23;20062;-81
2021/08/17 07:23:08;;;;;;;8.52;3.40;;;;;;;17.55;60.66;99792.16;6039375;23;20079;-78
2021/08/17 07:25:35;;;;;;;10.20;3.50;;;;;;;17.61;60.55;99784.63;6040695;23;20083;-78
2021/08/17 07:28:04;;;;;;;6.15;2.75;;;;;;;17.65;60.34;99783.38;6039202;23;20031;-78
2021/08/17 07:30:31;;;;;;;8.65;2.97;;;;;;;17.68;59.96;99778.63;6039205;23;20079;-82
2021/08/17 07:33:22;;;;;;;10.02;3.33;;;;;;;17.66;59.46;99763.75;6040762;23;20031;-82
2021/08/17 07:35:49;;;;;;;14.10;3.35;;;;;;;17.73;59.82;99782.69;6039134;23;20487;-81
2021/08/17 07:38:17;;;;;;;9.23;3.28;;;;;;;17.71;59.94;99769.53;6040100;23;20102;-82
2021/08/17 07:40:44;;;;;;;8.32;3.42;;;;;;;17.73;59.90;99775.56;6039230;23;20029;-81
2021/08/17 07:43:11;;;;;;;8.55;3.58;;;;;;;17.75;59.74;99778.94;6039618;23;20057;-82
2021/08/17 07:45:38;;;;;;;7.28;3.15;;;;;;;17.73;59.79;99783.56;6038992;23;20396;-81
2021/08/17 07:48:30;;;;;;;7.07;3.28;;;;;;;17.74;59.51;99784.38;6040218;23;20346;-81
2021/08/17 07:50:57;;;;;;;8.25;3.38;;;;;;;17.76;59.67;99771.78;6039122;23;20102;-82
2021/08/17 07:53:25;;;;;;;8.10;3.65;;;;;;;17.76;59.60;99785.94;6038992;23;20062;-82
2021/08/17 07:55:52;;;;;;;9.90;2.97;;;;;;;17.81;59.95;99785.53;6039205;23;20023;-78
2021/08/17 07:58:20;;;;;;;8.40;3.58;;;;;;;17.83;60.08;99784.44;6040525;23;20032;-78
2021/08/17 08:00:47;;;;;;;9.20;3.40;;;;;;;17.89;59.85;99777.72;6039328;23;20114;-78
2021/08/17 08:03:30;;;;;;;9.75;4.00;;;;;;;17.89;60.04;99783.06;6039475;23;20086;-79
2021/08/17 08:05:57;;;;;;;7.13;3.17;;;;;;;18.01;60.13;99788.28;6039101;23;20095;-79
2021/08/17 08:08:24;;;;;;;10.45;3.53;;;;;;;18.06;59.83;99789.53;6038929;23;20070;-80
2021/08/17 08:11:17;;;;;;;10.02;3.72;;;;;;;18.08;59.41;99778.78;6039636;23;20102;-80
2021/08/17 08:13:43;;;;;;;11.30;3.40;;;;;;;18.22;59.83;99782.91;6044212;23;20050;-80
2021/08/17 08:16:13;;;;;;;10.90;4.13;;;;;;;18.25;59.30;99798.63;6044226;23;20464;-80
2021/08/17 08:18:41;;;;;;;11.60;3.92;;;;;;;18.32;59.34;99790.91;6069481;23;20029;-80
2021/08/17 08:21:14;;;;;;;7.32;3.78;;;;;;;18.35;59.31;99793.28;6043689;23;20101;-79
2021/08/17 08:23:40;;;;;;;;;;;;;;;18.43;59.29;99796.09;6044019;23;20065;-80
2021/08/17 08:26:07;;;;;;;7.93;3.75;;;;;;;18.57;58.94;99796.69;6068745;23;20008;-80
2021/08/17 08:28:35;;;;;;;8.23;3.40;;;;;;;18.62;59.22;99805.97;6044028;23;20026;-80
2021/08/17 08:31:02;;;;;;;10.07;4.43;;;;;;;18.69;59.18;99794.75;6043854;23;20121;-80
2021/08/17 08:33:29;;;;;;;7.25;3.60;;;;;;;18.77;59.00;99794.03;6043675;23;20058;-81
2021/08/17 08:36:10;;;;;;;9.10;4.18;;;;;;;18.83;59.16;99793.47;6043827;23;20102;-81
2021/08/17 08:38:37;;;;;;;10.15;4.50;;;;;;;18.97;58.87;99794.88;6044442;23;20054;-81
2021/08/17 08:41:04;;;;;;;8.65;4.78;;;;;;;19.06;58.76;99791.38;6044124;23;20109;-81
2021/08/17 08:43:31;;;;;;;14.02;4.13;;;;;;;19.13;58.19;99797.84;6044393;23;20077;-81
2021/08/17 08:46:04;;;;;;;10.73;4.80;;;;;;;19.21;57.51;99789.13;6043585;23;20355;-81
2021/08/17 08:48:33;;;;;;;8.60;4.90;;;;;;;19.32;58.12;99795.31;6044029;23;20485;-81
2021/08/17 08:51:00;;;;;;;9.85;4.60;;;;;;;19.40;57.92;99798.09;6043784;23;20031;-81
2021/08/17 08:53:28;;;;;;;11.05;5.85;;;;;;;19.47;57.30;99798.34;6044117;23;20030;-81
2021/08/17 08:55:55;;;;;;;11.35;5.88;;;;;;;19.52;57.29;99793.41;6043770;23;20061;-82
2021/08/17 08:58:21;;;;;;;8.70;5.50;;;;;;;19.56;57.09;99792.16;6043913;23;20490;-82
2021/08/17 09:00:49;;;;;;;12.63;5.78;;;;;;;19.59;57.14;99799.84;6043798;23;20050;-82
2021/08/17 09:03:16;;;;;;;11.15;6.32;;;;;;;19.62;57.30;99788.88;6043278;23;20022;-82
2021/08/17 09:05:53;;;;;;;13.40;6.80;;;;;;;19.64;57.44;99794.94;6043428;23;20395;-78
2021/08/17 09:08:26;;;;;;;17.25;6.20;;;;;;;19.71;57.37;99794.34;6043418;23;20069;-81
2021/08/17 09:11:13;;;;;;;10.82;6.15;;;;;;;19.73;56.67;99801.22;6068764;23;20054;-82
2021/08/17 09:13:40;;;;;;;14.75;6.43;;;;;;;19.80;56.85;99790.78;6038239;23;20065;-80
2021/08/17 09:16:29;;;;;;;11.73;6.53;;;;;;;19.76;56.58;99787.56;6038993;23;20031;-80
2021/08/17 09:18:57;;;;;;;13.77;7.13;;;;;;;19.80;56.62;99793.44;6038852;23;20470;-80
2021/08/17 09:21:36;;;;;;;16.30;7.50;;;;;;;19.72;56.48;99799.53;6038974;23;20058;-81
2021/08/17 09:24:13;;;;;;;13.80;6.90;;;;;;;19.69;56.58;99799.00;6038779;23;20098;-82
2021/08/17 09:26:48;;;;;;;11.63;7.07;;;;;;;19.64;56.79;99816.28;6040041;23;20482;-82
2021/08/17 09:29:27;;;;;;;14.23;7.18;;;;;;;19.57;57.01;99814.31;6038908;23;20459;-81
2021/08/17 09:32:20;;;;;;;11.75;6.55;;;;;;;19.51;57.24;99810.44;6038691;23;20466;-81
2021/08/17 09:34:50;;;;;;;14.95;7.07;;;;;;;19.51;57.23;99819.25;6038364;23;20102;-81
2021/08/17 09:37:17;;;;;;;13.02;7.35;;;;;;;19.50;57.23;99814.06;6038832;23;20411;-82
2021/08/17 09:39:51;;;;;;;17.73;8.40;;;;;;;19.45;57.42;99811.84;6038154;23;20054;-82
2021/08/17 09:42:31;;;;;;;14.73;8.10;;;;;;;19.47;57.15;99793.84;6040007;23;20055;-82
2021/08/17 09:45:24;;;;;;;13.32;7.47;;;;;;;19.46;58.29;99781.50;6041429;23;20058;-81
2021/08/17 09:47:56;;;;;;;13.30;7.63;;;;;;;19.55;58.52;99778.94;6034425;23;20028;-81
2021/08/17 09:50:31;;;;;;;14.93;8.57;;;;;;;19.62;58.53;99780.88;6040474;23;20027;-82
2021/08/17 09:53:13;;;;;;;14.38;8.02;;;;;;;19.72;59.33;99774.66;6040338;23;20035;-79
2021/08/17 09:55:52;;;;;;;15.32;8.65;;;;;;;19.86;59.17;99768.00;6039891;23;20061;-80
2021/08/17 09:58:28;;;;;;;15.57;8.57;;;;;;;20.01;58.46;99763.88;6040441;23;20023;-78
2021/08/17 10:00:58;;;;;;;15.25;8.63;;;;;;;20.21;58.91;99776.25;6040107;23;20097;-78
2021/08/17 10:03:27;;;;;;;15.02;8.63;;;;;;;20.38;58.29;99782.63;6040118;23;20027;-78
2021/08/17 10:05:57;;;;;;;19.52;8.60;;;;;;;20.53;57.60;99785.63;6039758;23;20027;-78
2021/08/17 10:08:30;;;;;;;14.48;8.00;;;;;;;20.67;57.17;99790.44;6040236;23;20054;-78
2021/08/17 10:11:35;;;;;;;14.82;8.85;;;;;;;20.79;57.10;99780.34;6039936;23;20066;-81
2021/08/17 10:14:02;;;;;;;13.65;8.20;;;;;;;20.94;56.59;99767.28;6040200;23;20102;-82
2021/08/17 10:16:30;;;;;;;13.73;9.40;;;;;;;21.02;56.36;99781.72;6040603;23;20084;-82
2021/08/17 10:19:09;;;;;;;16.58;10.05;;;;;;;21.05;56.16;99789.47;6040485;23;20146;-81
2021/08/17 10:21:41;;;;;;;18.23;9.20;;;;;;;21.12;55.12;99782.47;6039851;23;20099;-82
2021/08/17 10:24:34;;;;;;;15.07;8.98;;;;;;;21.13;55.72;99777.97;6039990;23;20410;-82
2021/08/17 10:27:22;;;;;;;15.48;9.80;;;;;;;21.15;54.88;99774.13;6040124;23;20027;-82
2021/08/17 10:30:01;;;;;;;16.88;11.07;;;;;;;21.18;55.09;99765.81;6039994;23;20485;-82
2021/08/17 10:32:47;;;;;;;19.33;10.80;;;;;;;21.19;55.17;99769.31;6039657;23;20101;-82
2021/08/17 10:35:27;;;;;;;17.95;10.90;;;;;;;21.21;55.39;99765.50;6039972;23;20031;-82
2021/08/17 10:38:10;;;;;;;20.15;10.95;;;;;;;21.25;55.45;99755.31;6039653;23;20066;-80
2021/08/17 10:40:52;;;;;;;16.95;10.52;;;;;;;21.31;55.31;99767.22;6039984;23;20400;-80
2021/08/17 10:43:37;;;;;;;20.85;11.55;;;;;;;21.35;55.29;99763.25;6040279;23;20067;-80
2021/08/17 10:46:06;;;;;;;18.75;10.60;;;;;;;21.43;54.92;99771.31;6040128;23;20479;-80
2021/08/17 10:48:45;;;;;;;17.83;10.43;;;;;;;21.45;55.04;99772.00;6039955;23;20023;-80
2021/08/17 10:51:31;;;;;;;24.48;12.10;;;;;;;21.51;54.52;99750.91;6040106;23;20054;-80
2021/08/17 10:54:04;;;;;;;18.30;10.95;;;;;;;21.59;53.54;99751.81;6039092;23;20063;-80
2021/08/17 10:56:37;;;;;;;18.13;11.40;;;;;;;21.67;54.19;99766.22;6039984;23;20083;-80
2021/08/17 10:59:25;;;;;;;;;;;;;;;21.71;55.01;99757.72;6040036;23;20094;-80
2021/08/17 11:01:51;;;;;;;21.35;11.60;;;;;;;21.82;54.02;99755.78;6040029;23;20386;-80
2021/08/17 11:04:19;;;;;;;20.73;11.75;;;;;;;21.83;53.73;99765.53;6039358;23;20177;-80
2021/08/17 11:06:52;;;;;;;22.75;11.80;;;;;;;21.83;53.41;99757.47;6039865;23;20451;-80
2021/08/17 11:09:25;;;;;;;19.13;12.00;;;;;;;21.87;54.21;99753.47;6039406;23;20028;-79
2021/08/17 11:11:57;;;;;;;20.85;12.25;;;;;;;21.90;52.92;99758.50;6040295;23;20027;-80
2021/08/17 11:14:26;;;;;;;18.55;11.43;;;;;;;21.95;53.27;99750.84;6044833;23;20462;-80
2021/08/17 11:16:53;;;;;;;21.90;11.63;;;;;;;21.99;52.83;99743.28;6044694;23;20502;-80
2021/08/17 11:19:40;;;;;;;20.40;11.38;;;;;;;21.94;52.45;99734.91;6044781;23;20062;-80
2021/08/17 11:22:09;;;;;;;17.23;10.80;;;;;;;21.97;51.96;99727.38;6044476;23;20094;-80
2021/08/17 11:24:47;;;;;;;17.38;11.05;;;;;;;21.93;52.07;99751.97;6043995;23;20109;-80
2021/08/17 11:27:16;;;;;;;19.77;11.55;;;;;;;21.92;52.32;99751.16;6044352;23;20102;-80
2021/08/17 11:29:59;;;;;;;19.10;11.38;;;;;;;21.89;52.49;99750.63;6044825;23;20086;-80
2021/08/17 11:32:31;;;;;;;20.52;11.68;;;;;;;21.87;51.16;99748.94;6044387;23;20054;-80
2021/08/17 11:35:02;;;;;;;18.67;11.15;;;;;;;21.84;51.29;99761.84;6043948;23;20106;-80
2021/08/17 11:37:34;;;;;;;15.25;10.00;;;;;;;21.81;51.63;99765.69;6044438;23;20102;-79
2021/08/17 11:40:04;;;;;;;18.58;10.85;;;;;;;21.83;52.14;99763.66;6044702;23;20446;-80
2021/08/17 11:42:36;;;;;;;16.75;11.07;;;;;;;21.89;53.22;99767.53;6044527;23;20114;-80